Time;durP1;ratioP1;P1;durP2;ratioP2;P2;SDS_P1;SDS_P2;PMS_P1;PMS_P2;Temp;Humidity;BMP_temperature;BMP_pressure;BME280_temperature;BME280_humidity;BME280_pressure;Samples;Min_cycle;Max_cycle;Signal;HPM_P1;HPM_P2
2023/07/08 00:00:26;;;;;;;10.40;3.60;;;18.20;99.90;;;;;;5023424;28;20056;-73
2023/07/08 00:02:52;;;;;;;7.47;3.53;;;18.20;99.90;;;;;;5005905;28;20565;-73
2023/07/08 00:05:21;;;;;;;8.35;3.47;;;18.10;99.90;;;;;;5022628;28;20152;-74
2023/07/08 00:07:47;;;;;;;8.90;3.83;;;18.10;99.90;;;;;;5023416;28;20044;-73
2023/07/08 00:10:20;;;;;;;10.98;3.72;;;18.00;99.90;;;;;;5025293;28;20458;-73
2023/07/08 00:12:49;;;;;;;8.82;4.05;;;18.00;99.90;;;;;;5021654;28;20050;-73
2023/07/08 00:15:16;;;;;;;9.25;4.07;;;18.00;99.90;;;;;;5005771;28;20046;-73
2023/07/08 00:17:42;;;;;;;11.10;3.60;;;17.80;99.90;;;;;;5021709;28;20418;-74
2023/07/08 00:20:31;;;;;;;8.20;3.70;;;17.80;99.90;;;;;;5018574;28;20041;-74
2023/07/08 00:22:57;;;;;;;9.18;4.10;;;17.80;99.90;;;;;;5023581;28;20091;-74
2023/07/08 00:25:23;;;;;;;8.35;3.75;;;17.70;99.90;;;;;;5022959;28;20049;-74
2023/07/08 00:27:49;;;;;;;7.68;3.58;;;17.70;99.90;;;;;;5020752;28;20498;-73
2023/07/08 00:30:18;;;;;;;6.75;3.17;;;17.60;99.90;;;;;;5019192;28;20100;-73
2023/07/08 00:32:44;;;;;;;10.18;3.90;;;17.60;99.90;;;;;;5003994;28;20049;-74
2023/07/08 00:35:09;;;;;;;8.93;3.50;;;17.50;99.90;;;;;;5022492;28;20087;-73
2023/07/08 00:37:35;;;;;;;11.90;3.95;;;17.50;99.90;;;;;;5024905;28;20398;-74
2023/07/08 00:40:11;;;;;;;11.30;4.43;;;17.50;99.90;;;;;;5022268;28;20081;-74
2023/07/08 00:42:38;;;;;;;9.35;4.13;;;17.50;99.90;;;;;;5020073;28;20046;-74
2023/07/08 00:45:15;;;;;;;8.75;3.83;;;17.40;99.90;;;;;;5022044;28;20072;-74
2023/07/08 00:47:42;;;;;;;8.80;4.03;;;17.40;99.90;;;;;;5021611;28;20057;-73
2023/07/08 00:50:11;;;;;;;10.10;3.75;;;17.30;99.90;;;;;;5018878;28;20124;-73
2023/07/08 00:52:37;;;;;;;8.50;3.75;;;17.30;99.90;;;;;;5022464;28;20061;-73
2023/07/08 00:55:07;;;;;;;8.15;3.60;;;17.30;99.90;;;;;;5020949;28;20045;-73
2023/07/08 00:57:38;;;;;;;8.77;3.80;;;17.30;99.90;;;;;;5023497;28;20041;-73
2023/07/08 01:00:16;;;;;;;8.55;3.58;;;17.30;99.90;;;;;;5002619;28;20320;-74
2023/07/08 01:02:52;;;;;;;9.07;4.30;;;17.20;99.90;;;;;;5002696;28;20108;-73
2023/07/08 01:05:22;;;;;;;7.65;3.90;;;17.20;99.90;;;;;;5020044;28;20881;-74
2023/07/08 01:07:53;;;;;;;8.02;3.72;;;17.20;99.90;;;;;;5021808;28;20124;-74
2023/07/08 01:10:26;;;;;;;8.88;3.80;;;17.20;99.90;;;;;;5024701;28;20573;-73
2023/07/08 01:12:57;;;;;;;11.70;3.92;;;17.10;99.90;;;;;;5025241;28;20409;-73
2023/07/08 01:15:29;;;;;;;8.52;4.18;;;17.10;99.90;;;;;;5021806;28;20132;-73
2023/07/08 01:17:55;;;;;;;7.75;3.72;;;17.10;99.90;;;;;;5019229;28;20052;-74
2023/07/08 01:20:21;;;;;;;10.18;3.92;;;17.00;99.90;;;;;;5024809;28;20041;-73
2023/07/08 01:22:47;;;;;;;10.05;4.38;;;17.00;99.90;;;;;;5019395;28;20124;-74
2023/07/08 01:25:13;;;;;;;8.48;3.70;;;17.00;99.90;;;;;;5022001;28;20041;-73
2023/07/08 01:27:45;;;;;;;9.18;4.00;;;17.00;99.90;;;;;;5022967;28;20050;-74
2023/07/08 01:30:11;;;;;;;8.27;3.70;;;17.00;99.90;;;;;;5019420;28;20828;-73
2023/07/08 01:32:43;;;;;;;8.48;4.72;;;16.90;99.90;;;;;;5022182;28;20053;-73
2023/07/08 01:35:09;;;;;;;;;;;16.90;99.90;;;;;;5020759;28;20148;-72
2023/07/08 01:37:43;;;;;;;11.18;4.13;;;16.80;99.90;;;;;;5019641;28;19932;-73
2023/07/08 01:40:32;;;;;;;7.95;3.80;;;16.80;99.90;;;;;;5007106;28;20053;-73
2023/07/08 01:42:58;;;;;;;8.82;3.95;;;16.70;99.90;;;;;;5020806;28;20050;-74
2023/07/08 01:45:27;;;;;;;9.80;4.55;;;16.70;99.90;;;;;;5021521;28;20113;-73
2023/07/08 01:47:54;;;;;;;9.75;4.15;;;16.70;99.90;;;;;;5022799;28;20045;-74
2023/07/08 01:50:21;;;;;;;10.25;3.95;;;16.70;99.90;;;;;;5019738;28;20037;-73
2023/07/08 01:52:49;;;;;;;8.57;4.07;;;16.50;99.90;;;;;;5018193;28;20499;-73
2023/07/08 01:55:15;;;;;;;8.40;3.70;;;16.70;99.90;;;;;;5022801;28;20116;-73
2023/07/08 01:57:41;;;;;;;8.18;4.30;;;16.60;99.90;;;;;;5022623;28;20132;-73
2023/07/08 02:00:08;;;;;;;9.45;3.85;;;16.60;99.90;;;;;;5022580;28;20552;-73
2023/07/08 02:02:34;;;;;;;7.95;3.88;;;16.60;99.90;;;;;;5018457;28;20107;-73
2023/07/08 02:04:59;;;;;;;9.57;4.18;;;16.60;99.90;;;;;;5018552;28;20446;-73
2023/07/08 02:07:25;;;;;;;8.02;3.80;;;16.60;99.90;;;;;;5003844;28;20076;-73
2023/07/08 02:09:51;;;;;;;10.02;4.38;;;16.60;99.90;;;;;;5002102;28;20080;-73
2023/07/08 02:12:16;;;;;;;9.52;3.92;;;16.60;99.90;;;;;;5021140;28;20069;-73
2023/07/08 02:14:42;;;;;;;10.18;4.15;;;16.50;99.90;;;;;;5018813;28;20120;-73
2023/07/08 02:17:09;;;;;;;11.80;4.38;;;16.50;99.90;;;;;;5022758;28;20041;-73
2023/07/08 02:19:34;;;;;;;9.23;4.40;;;16.50;99.90;;;;;;5021963;28;20107;-73
2023/07/08 02:22:00;;;;;;;10.23;4.03;;;16.50;99.90;;;;;;5021514;28;20037;-74
2023/07/08 02:24:26;;;;;;;8.35;4.43;;;16.50;99.90;;;;;;5006259;28;20052;-72
2023/07/08 02:26:52;;;;;;;8.00;4.00;;;16.40;99.90;;;;;;5022930;28;20060;-73
2023/07/08 02:29:18;;;;;;;8.82;3.90;;;16.40;99.90;;;;;;5023174;28;20522;-72
2023/07/08 02:31:43;;;;;;;8.50;3.88;;;16.40;99.90;;;;;;5024324;28;20057;-73
2023/07/08 02:34:09;;;;;;;7.93;4.55;;;16.30;99.90;;;;;;5002052;28;20037;-73
2023/07/08 02:36:36;;;;;;;9.45;3.92;;;16.30;99.90;;;;;;5020337;28;20045;-73
2023/07/08 02:39:02;;;;;;;9.65;4.65;;;16.30;99.90;;;;;;5020987;28;20053;-73
2023/07/08 02:41:28;;;;;;;9.77;4.75;;;16.30;99.90;;;;;;5022344;28;20037;-73
2023/07/08 02:43:54;;;;;;;10.50;4.72;;;16.30;99.90;;;;;;5027875;28;20049;-73
2023/07/08 02:46:19;;;;;;;8.88;4.47;;;16.30;99.90;;;;;;5008746;28;20057;-74
2023/07/08 02:48:45;;;;;;;8.30;4.43;;;16.30;99.90;;;;;;5025445;28;20103;-73
2023/07/08 02:51:11;;;;;;;7.47;4.53;;;16.20;99.90;;;;;;5026293;28;20111;-73
2023/07/08 02:53:37;;;;;;;10.10;4.72;;;16.20;99.90;;;;;;5023930;28;20683;-72
2023/07/08 02:56:02;;;;;;;8.85;4.55;;;16.20;99.90;;;;;;5025200;28;20037;-72
2023/07/08 02:58:29;;;;;;;10.25;4.50;;;16.20;99.90;;;;;;5026774;28;20092;-73
2023/07/08 03:00:59;;;;;;;9.80;4.43;;;16.20;99.90;;;;;;5025862;28;20048;-73
2023/07/08 03:03:24;;;;;;;11.18;4.65;;;16.20;99.90;;;;;;5026431;28;20045;-72
2023/07/08 03:05:58;;;;;;;10.25;4.55;;;16.20;99.90;;;;;;5023576;28;20056;-73
2023/07/08 03:08:25;;;;;;;11.48;5.10;;;16.20;99.90;;;;;;5023073;28;20049;-72
2023/07/08 03:10:56;;;;;;;9.43;4.53;;;16.10;99.90;;;;;;5027644;28;20041;-72
2023/07/08 03:13:22;;;;;;;9.38;4.47;;;16.10;99.90;;;;;;5026150;28;20051;-73
2023/07/08 03:15:51;;;;;;;10.95;4.50;;;16.00;99.90;;;;;;5023632;28;20049;-73
2023/07/08 03:18:17;;;;;;;12.65;5.63;;;16.10;99.90;;;;;;5021136;28;20091;-73
2023/07/08 03:20:44;;;;;;;9.57;4.95;;;16.00;99.90;;;;;;5024312;28;20044;-73
2023/07/08 03:23:11;;;;;;;11.07;5.38;;;16.00;99.90;;;;;;5021202;28;20415;-73
2023/07/08 03:25:37;;;;;;;10.07;5.43;;;16.00;99.90;;;;;;5025660;28;20053;-73
2023/07/08 03:28:06;;;;;;;7.97;4.63;;;16.00;99.90;;;;;;5021444;28;20617;-73
2023/07/08 03:30:32;;;;;;;11.07;4.97;;;16.00;99.90;;;;;;5022738;28;20052;-74
2023/07/08 03:32:59;;;;;;;10.35;4.85;;;16.00;99.90;;;;;;5024841;28;20053;-73
2023/07/08 03:35:25;;;;;;;10.65;4.88;;;16.00;99.90;;;;;;5005186;28;20052;-73
2023/07/08 03:37:52;;;;;;;10.27;5.05;;;15.90;99.90;;;;;;5019759;28;20049;-74
2023/07/08 03:40:18;;;;;;;12.48;5.25;;;15.90;99.90;;;;;;5024631;28;20107;-74
2023/07/08 03:42:43;;;;;;;11.27;5.10;;;15.90;99.90;;;;;;5024231;28;20041;-74
2023/07/08 03:45:09;;;;;;;9.95;5.53;;;15.90;99.90;;;;;;5025175;28;20049;-73
2023/07/08 03:47:36;;;;;;;9.23;4.55;;;15.90;99.90;;;;;;5025380;28;20055;-73
2023/07/08 03:50:02;;;;;;;9.25;5.00;;;15.90;99.90;;;;;;5024431;28;20033;-73
2023/07/08 03:52:27;;;;;;;9.80;5.38;;;15.90;99.90;;;;;;5022822;28;20045;-74
2023/07/08 03:54:54;;;;;;;10.15;4.70;;;15.90;99.90;;;;;;5022582;28;20403;-73
2023/07/08 03:57:19;;;;;;;8.85;4.78;;;15.90;99.90;;;;;;5022975;28;20116;-74
2023/07/08 03:59:46;;;;;;;10.57;5.43;;;15.90;99.90;;;;;;5024453;28;20450;-74
2023/07/08 04:02:12;;;;;;;12.35;5.38;;;15.90;99.90;;;;;;5024917;28;20375;-73
2023/07/08 04:04:38;;;;;;;9.18;5.10;;;15.90;99.90;;;;;;5021357;28;20057;-73
2023/07/08 04:07:07;;;;;;;10.18;4.82;;;16.00;99.90;;;;;;5024873;28;20041;-73
2023/07/08 04:09:33;;;;;;;8.40;5.05;;;15.90;99.90;;;;;;5006924;28;20046;-73
2023/07/08 04:11:59;;;;;;;9.88;5.00;;;16.00;99.90;;;;;;5024540;28;20376;-74
2023/07/08 04:14:25;;;;;;;10.02;5.18;;;16.00;99.90;;;;;;5021610;28;20505;-73
2023/07/08 04:16:56;;;;;;;10.45;5.63;;;16.00;99.90;;;;;;5025606;28;20398;-73
2023/07/08 04:19:22;;;;;;;;;;;16.00;99.90;;;;;;5018140;28;20053;-73
2023/07/08 04:21:48;;;;;;;11.90;5.53;;;16.00;99.90;;;;;;5025246;28;19929;-73
2023/07/08 04:24:16;;;;;;;12.68;5.30;;;16.00;99.90;;;;;;5007943;28;20041;-73
2023/07/08 04:26:43;;;;;;;11.20;5.50;;;16.00;99.90;;;;;;5022799;28;20494;-73
2023/07/08 04:29:13;;;;;;;12.25;5.50;;;16.00;99.90;;;;;;5022503;28;20172;-73
2023/07/08 04:31:39;;;;;;;13.18;5.70;;;16.00;99.90;;;;;;5024562;28;20061;-74
2023/07/08 04:34:06;;;;;;;10.70;5.70;;;16.10;99.90;;;;;;5024632;28;20406;-70
2023/07/08 04:36:31;;;;;;;13.02;5.18;;;16.10;99.90;;;;;;5024483;28;20103;-70
2023/07/08 04:38:58;;;;;;;9.55;4.82;;;16.10;99.90;;;;;;5019404;28;20037;-70
2023/07/08 04:41:27;;;;;;;9.80;4.93;;;16.10;99.90;;;;;;5022826;28;20037;-70
2023/07/08 04:43:53;;;;;;;12.27;4.90;;;16.30;99.90;;;;;;5022513;28;20506;-70
2023/07/08 04:46:46;;;;;;;9.60;5.05;;;16.60;99.90;;;;;;5006399;28;20045;-70
2023/07/08 04:49:13;;;;;;;8.25;4.72;;;16.90;99.90;;;;;;5017833;28;20045;-70
2023/07/08 04:51:39;;;;;;;10.13;4.57;;;17.10;99.90;;;;;;5019558;28;20182;-70
2023/07/08 04:54:06;;;;;;;9.48;4.88;;;17.40;99.90;;;;;;5019481;28;20045;-70
2023/07/08 04:56:44;;;;;;;8.63;4.40;;;17.60;99.90;;;;;;5020673;28;20048;-70
2023/07/08 04:59:11;;;;;;;10.30;4.22;;;17.90;99.90;;;;;;5022283;28;21451;-70
2023/07/08 05:01:37;;;;;;;8.45;4.53;;;18.10;99.90;;;;;;5021930;28;20049;-70
2023/07/08 05:04:06;;;;;;;10.63;4.78;;;18.30;99.90;;;;;;5022482;28;20406;-70
2023/07/08 05:06:33;;;;;;;10.27;4.30;;;18.50;99.90;;;;;;5019593;28;20402;-70
2023/07/08 05:09:00;;;;;;;9.40;4.10;;;18.60;99.90;;;;;;5021336;28;20041;-70
2023/07/08 05:11:26;;;;;;;11.77;4.43;;;18.80;99.90;;;;;;5023986;28;20094;-70
2023/07/08 05:13:52;;;;;;;7.60;3.90;;;19.00;99.90;;;;;;5018972;28;20041;-70
2023/07/08 05:16:18;;;;;;;7.97;3.85;;;19.20;99.90;;;;;;5021686;28;20395;-73
2023/07/08 05:18:45;;;;;;;6.78;3.78;;;19.30;99.90;;;;;;5023478;28;20106;-73
2023/07/08 05:21:11;;;;;;;8.15;3.88;;;19.50;99.90;;;;;;5022143;28;20071;-73
2023/07/08 05:23:37;;;;;;;9.43;3.90;;;19.70;99.90;;;;;;5023913;28;20100;-73
2023/07/08 05:26:05;;;;;;;8.02;3.80;;;19.90;99.90;;;;;;5023688;28;20041;-72
2023/07/08 05:28:31;;;;;;;6.72;3.50;;;20.10;99.90;;;;;;5022586;28;20053;-73
2023/07/08 05:30:57;;;;;;;8.00;3.30;;;20.30;99.90;;;;;;5023550;28;20042;-72
2023/07/08 05:33:27;;;;;;;8.38;3.80;;;20.30;99.90;;;;;;5020632;28;20129;-72
2023/07/08 05:35:53;;;;;;;7.50;3.83;;;20.30;99.90;;;;;;5021612;28;20190;-72
2023/07/08 05:38:20;;;;;;;5.53;3.30;;;20.10;99.90;;;;;;5024471;28;20781;-72
2023/07/08 05:40:55;;;;;;;9.07;3.70;;;19.90;99.90;;;;;;5022496;28;20685;-72
2023/07/08 05:43:21;;;;;;;8.10;3.63;;;19.70;99.90;;;;;;5019621;28;20048;-72
2023/07/08 05:45:47;;;;;;;9.35;3.80;;;19.50;99.90;;;;;;5017868;28;20050;-74
2023/07/08 05:48:13;;;;;;;9.77;3.95;;;19.40;99.90;;;;;;5020132;28;20383;-73
2023/07/08 05:50:39;;;;;;;14.90;4.07;;;19.30;99.90;;;;;;5017052;28;20045;-74
2023/07/08 05:53:06;;;;;;;10.43;3.97;;;19.10;99.90;;;;;;5006104;28;20406;-74
2023/07/08 05:55:34;;;;;;;8.30;3.70;;;19.10;99.90;;;;;;5015957;28;20095;-73
2023/07/08 05:58:00;;;;;;;9.30;3.78;;;19.00;99.90;;;;;;5018804;28;20042;-72
2023/07/08 06:00:26;;;;;;;11.65;4.20;;;18.90;99.90;;;;;;5023173;28;20102;-73
2023/07/08 06:02:52;;;;;;;6.90;3.75;;;18.90;99.90;;;;;;5021100;28;20046;-73
2023/07/08 06:05:18;;;;;;;8.18;3.80;;;19.00;99.90;;;;;;5013218;28;20053;-73
2023/07/08 06:07:44;;;;;;;7.50;3.80;;;19.20;99.90;;;;;;4999953;28;20056;-73
2023/07/08 06:10:10;;;;;;;8.45;3.95;;;19.30;99.90;;;;;;5023457;28;20038;-73
2023/07/08 06:12:35;;;;;;;8.45;4.03;;;19.40;99.90;;;;;;5021324;28;20057;-74
2023/07/08 06:15:01;;;;;;;8.43;3.83;;;19.70;99.90;;;;;;5020763;28;20048;-73
2023/07/08 06:17:27;;;;;;;9.73;3.60;;;19.90;99.90;;;;;;5022581;28;20030;-73
2023/07/08 06:19:53;;;;;;;6.90;3.55;;;20.10;99.90;;;;;;5020559;28;20111;-72
2023/07/08 06:22:19;;;;;;;10.23;4.05;;;20.20;99.90;;;;;;5021789;28;20052;-73
2023/07/08 06:24:45;;;;;;;7.80;3.78;;;20.30;99.90;;;;;;5025302;28;20429;-73
2023/07/08 06:27:10;;;;;;;8.30;3.50;;;20.40;99.90;;;;;;5023190;28;20052;-73
2023/07/08 06:29:36;;;;;;;7.55;3.35;;;20.40;99.90;;;;;;5019494;28;20406;-73
2023/07/08 06:32:02;;;;;;;8.48;3.45;;;20.40;99.90;;;;;;5021435;28;20115;-73
2023/07/08 06:34:28;;;;;;;7.13;3.40;;;20.40;99.90;;;;;;5023268;28;20041;-74
2023/07/08 06:36:53;;;;;;;6.78;3.42;;;20.30;99.90;;;;;;5005254;28;20046;-74
2023/07/08 06:39:19;;;;;;;9.25;3.80;;;20.20;99.90;;;;;;5023684;28;20116;-74
2023/07/08 06:41:45;;;;;;;7.40;3.53;;;20.10;99.90;;;;;;5022508;28;20045;-73
2023/07/08 06:44:11;;;;;;;8.63;3.80;;;20.00;99.90;;;;;;5021085;28;20116;-73
2023/07/08 06:46:37;;;;;;;8.68;3.75;;;20.00;99.90;;;;;;5015131;28;20137;-73
2023/07/08 06:49:03;;;;;;;10.57;3.90;;;20.00;99.90;;;;;;5018758;28;20041;-73
2023/07/08 06:51:28;;;;;;;8.77;3.53;;;20.00;99.90;;;;;;5020729;28;20128;-69
2023/07/08 06:53:54;;;;;;;7.75;3.53;;;19.90;99.90;;;;;;5026499;28;20351;-70
2023/07/08 06:56:20;;;;;;;9.25;3.63;;;20.00;99.90;;;;;;5004184;28;20104;-70
2023/07/08 06:58:46;;;;;;;6.97;3.55;;;20.00;99.90;;;;;;5013316;28;20053;-69
2023/07/08 07:01:12;;;;;;;8.38;3.40;;;20.00;99.90;;;;;;5017523;28;20045;-70
2023/07/08 07:03:39;;;;;;;9.00;3.63;;;20.00;99.90;;;;;;5017246;28;20053;-70
2023/07/08 07:06:05;;;;;;;15.13;4.13;;;20.00;99.90;;;;;;5019797;28;20445;-70
2023/07/08 07:08:30;;;;;;;7.57;3.80;;;20.10;99.90;;;;;;5017656;28;20045;-69
2023/07/08 07:10:56;;;;;;;7.57;3.17;;;20.10;99.90;;;;;;5021167;28;20403;-70
2023/07/08 07:13:22;;;;;;;7.35;3.13;;;20.10;99.90;;;;;;5019571;28;20038;-70
2023/07/08 07:15:51;;;;;;;9.45;3.40;;;20.20;99.90;;;;;;5015523;28;20068;-71
2023/07/08 07:18:16;;;;;;;7.47;3.03;;;20.30;99.90;;;;;;5016328;28;20045;-70
2023/07/08 07:20:50;;;;;;;8.63;4.00;;;20.30;99.90;;;;;;5018699;28;20067;-74
2023/07/08 07:23:16;;;;;;;8.23;3.30;;;20.40;99.90;;;;;;5018962;28;20056;-73
2023/07/08 07:25:42;;;;;;;7.63;3.15;;;20.50;99.90;;;;;;5024602;28;20037;-73
2023/07/08 07:28:07;;;;;;;9.27;3.53;;;20.60;99.90;;;;;;5023595;28;20383;-73
2023/07/08 07:30:33;;;;;;;7.30;3.50;;;20.80;99.90;;;;;;5022749;28;20048;-73
2023/07/08 07:33:00;;;;;;;6.50;3.13;;;20.90;99.90;;;;;;5021208;28;20053;-73
2023/07/08 07:35:26;;;;;;;6.60;3.53;;;21.00;99.90;;;;;;5022492;28;20407;-74
2023/07/08 07:37:52;;;;;;;8.48;3.60;;;21.20;99.90;;;;;;5024314;28;20041;-73
2023/07/08 07:40:18;;;;;;;7.57;3.30;;;21.30;99.90;;;;;;5022461;28;20083;-73
2023/07/08 07:42:45;;;;;;;6.53;3.00;;;21.40;99.90;;;;;;5023655;28;20454;-73
2023/07/08 07:45:12;;;;;;;7.00;3.05;;;21.60;99.90;;;;;;5019511;28;20735;-73
2023/07/08 07:47:38;;;;;;;6.75;3.10;;;21.70;99.90;;;;;;5022364;28;20421;-74
2023/07/08 07:50:06;;;;;;;11.40;3.22;;;21.80;99.90;;;;;;5023844;28;20052;-73
2023/07/08 07:52:32;;;;;;;6.68;2.60;;;22.00;99.90;;;;;;5002563;28;20042;-74
2023/07/08 07:54:58;;;;;;;7.53;3.40;;;22.10;99.90;;;;;;5016230;28;20744;-74
2023/07/08 07:57:24;;;;;;;9.80;3.13;;;22.30;99.90;;;;;;5018220;28;20034;-74
2023/07/08 07:59:50;;;;;;;9.35;3.40;;;22.40;99.90;;;;;;5023452;28;20409;-73
2023/07/08 08:02:16;;;;;;;5.30;2.65;;;22.50;99.90;;;;;;5019459;28;20037;-74
2023/07/08 08:04:42;;;;;;;7.75;3.00;;;22.60;99.90;;;;;;5025248;28;20052;-73
2023/07/08 08:07:09;;;;;;;6.50;2.70;;;22.70;99.90;;;;;;5020935;28;20411;-73
2023/07/08 08:09:35;;;;;;;6.13;3.30;;;22.80;99.90;;;;;;4998256;28;20153;-74
2023/07/08 08:12:03;;;;;;;8.50;3.03;;;22.90;99.90;;;;;;5021748;28;20061;-73
2023/07/08 08:14:29;;;;;;;7.43;3.08;;;23.00;99.90;;;;;;5022223;28;20030;-73
2023/07/08 08:16:55;;;;;;;7.20;3.03;;;23.10;99.90;;;;;;5023671;28;20052;-73
2023/07/08 08:19:21;;;;;;;7.55;2.72;;;23.10;99.90;;;;;;5023789;28;20495;-73
2023/07/08 08:21:47;;;;;;;5.72;2.63;;;23.20;99.90;;;;;;5021018;28;20091;-72
2023/07/08 08:24:12;;;;;;;6.40;3.00;;;23.30;99.90;;;;;;5022829;28;20091;-73
2023/07/08 08:26:38;;;;;;;5.53;2.33;;;23.40;99.90;;;;;;5020921;28;20487;-73
2023/07/08 08:29:04;;;;;;;8.30;3.38;;;23.50;99.90;;;;;;5022217;28;20048;-74
2023/07/08 08:31:31;;;;;;;11.43;3.70;;;23.60;99.90;;;;;;5018759;28;20037;-73
2023/07/08 08:33:57;;;;;;;7.63;2.95;;;23.70;99.90;;;;;;5020548;28;20052;-73
2023/07/08 08:36:22;;;;;;;7.95;3.30;;;23.70;99.90;;;;;;5018048;28;20395;-74
2023/07/08 08:38:49;;;;;;;6.88;3.05;;;23.80;99.90;;;;;;5021206;28;20046;-74
2023/07/08 08:41:22;;;;;;;7.43;3.03;;;23.80;99.90;;;;;;5020534;28;20041;-74
2023/07/08 08:43:50;;;;;;;7.90;2.90;;;23.90;99.90;;;;;;5019488;28;20093;-73
2023/07/08 08:46:37;;;;;;;10.07;3.08;;;24.00;99.90;;;;;;5020861;28;20033;-73
2023/07/08 08:49:18;;;;;;;10.60;2.80;;;24.00;99.90;;;;;;5020740;28;20545;-75
2023/07/08 08:51:44;;;;;;;8.90;3.00;;;24.10;99.90;;;;;;5020244;28;20076;-74
2023/07/08 08:54:09;;;;;;;5.85;2.85;;;24.20;99.90;;;;;;5004539;28;20205;-74
2023/07/08 08:56:48;;;;;;;7.18;3.13;;;24.20;99.90;;;;;;5019131;28;20108;-73
2023/07/08 08:59:19;;;;;;;5.72;2.72;;;24.30;99.90;;;;;;5021408;28;20038;-73
2023/07/08 09:01:47;;;;;;;6.22;2.85;;;24.40;99.90;;;;;;5022809;28;20413;-74
2023/07/08 09:04:20;;;;;;;7.60;2.72;;;24.50;99.90;;;;;;5001917;28;20057;-74
2023/07/08 09:06:46;;;;;;;6.40;2.60;;;24.60;99.90;;;;;;5021566;28;20051;-73
2023/07/08 09:09:18;;;;;;;5.95;2.70;;;24.60;99.90;;;;;;5023276;28;20049;-73
2023/07/08 09:12:04;;;;;;;7.00;3.03;;;24.70;99.90;;;;;;5021074;28;20041;-73
2023/07/08 09:14:32;;;;;;;6.40;2.63;;;24.80;99.90;;;;;;5020562;28;20041;-75
2023/07/08 09:17:34;;;;;;;8.75;2.85;;;24.80;99.90;;;;;;5018733;28;20045;-73
2023/07/08 09:20:03;;;;;;;7.28;3.03;;;24.90;99.90;;;;;;5012039;28;20124;-74
2023/07/08 09:22:35;;;;;;;7.00;2.70;;;25.00;99.90;;;;;;5002307;28;20041;-74
2023/07/08 09:25:34;;;;;;;7.25;2.60;;;25.10;99.90;;;;;;5018103;28;20037;-74
2023/07/08 09:28:00;;;;;;;7.38;2.95;;;25.20;99.90;;;;;;5018653;28;20044;-74
2023/07/08 09:30:28;;;;;;;9.65;3.03;;;25.30;99.90;;;;;;5020101;28;20509;-75
2023/07/08 09:32:54;;;;;;;8.35;2.80;;;25.30;99.90;;;;;;5018270;28;20056;-74
2023/07/08 09:35:23;;;;;;;5.95;2.92;;;25.40;99.90;;;;;;5018473;28;20513;-74
2023/07/08 09:37:50;;;;;;;6.63;2.80;;;25.60;99.90;;;;;;5015459;28;20387;-74
2023/07/08 09:40:32;;;;;;;10.40;2.72;;;25.60;99.90;;;;;;5017805;28;20656;-74
2023/07/08 09:43:28;;;;;;;8.93;3.40;;;25.70;99.90;;;;;;5021594;28;20057;-70
2023/07/08 09:45:59;;;;;;;5.25;2.45;;;25.80;99.90;;;;;;5011412;28;20099;-69
2023/07/08 09:48:27;;;;;;;5.38;2.35;;;25.90;99.90;;;;;;5017904;28;20506;-69
2023/07/08 09:50:55;;;;;;;5.20;2.38;;;25.90;99.90;;;;;;5016410;28;20498;-70
2023/07/08 09:53:21;;;;;;;6.95;2.92;;;25.90;99.90;;;;;;5012076;28;20048;-69
2023/07/08 09:55:49;;;;;;;5.95;3.25;;;26.00;99.90;;;;;;5009938;28;20056;-69
2023/07/08 09:58:32;;;;;;;5.85;2.80;;;26.10;99.90;;;;;;5011052;28;20414;-69
2023/07/08 10:01:01;;;;;;;8.18;3.00;;;26.20;99.90;;;;;;4994616;28;20129;-69
2023/07/08 10:03:36;;;;;;;7.50;2.75;;;26.20;99.90;;;;;;5011282;28;20132;-69
2023/07/08 10:06:35;;;;;;;6.85;2.42;;;26.30;99.80;;;;;;5019083;28;20123;-69
2023/07/08 10:09:23;;;;;;;5.40;2.30;;;26.40;99.30;;;;;;5004333;28;20058;-70
2023/07/08 10:12:01;;;;;;;8.00;3.03;;;26.40;99.90;;;;;;5006129;28;20252;-70
2023/07/08 10:14:37;;;;;;;5.13;2.70;;;26.60;99.90;;;;;;5004783;28;20501;-69
2023/07/08 10:17:03;;;;;;;6.15;2.63;;;26.70;99.90;;;;;;5010992;28;20049;-69
2023/07/08 10:19:29;;;;;;;8.05;2.58;;;26.80;99.50;;;;;;4997306;28;20140;-70
2023/07/08 10:22:00;;;;;;;7.10;2.40;;;26.90;99.40;;;;;;5010501;28;20029;-69
2023/07/08 10:24:44;;;;;;;10.43;2.80;;;27.00;99.40;;;;;;5014785;28;20070;-68
2023/07/08 10:27:35;;;;;;;7.43;2.90;;;27.10;99.40;;;;;;4999605;28;20057;-69
2023/07/08 10:30:16;;;;;;;;;;;27.10;99.40;;;;;;5041301;28;20049;-68
2023/07/08 10:32:44;;;;;;;;;;;27.20;99.40;;;;;;5021863;28;19925;-69
2023/07/08 10:35:20;;;;;;;5.32;2.85;;;27.30;98.80;;;;;;5021780;28;19932;-69
2023/07/08 10:37:46;;;;;;;6.25;2.42;;;27.30;97.60;;;;;;5000330;28;20057;-69
2023/07/08 10:40:19;;;;;;;7.53;2.63;;;27.40;97.40;;;;;;5004482;28;20503;-69
2023/07/08 10:43:18;;;;;;;7.70;2.42;;;27.40;97.90;;;;;;5020973;28;20048;-69
2023/07/08 10:46:03;;;;;;;6.35;2.78;;;27.50;98.50;;;;;;5034895;28;20080;-68
2023/07/08 10:48:44;;;;;;;6.32;2.50;;;27.60;97.90;;;;;;5021856;28;20053;-69
2023/07/08 10:51:48;;;;;;;9.35;3.15;;;27.60;98.40;;;;;;5001937;28;20521;-69
2023/07/08 10:54:39;;;;;;;7.10;2.67;;;27.70;98.80;;;;;;5014513;28;20064;-69
2023/07/08 10:57:14;;;;;;;;;;;27.80;97.90;;;;;;5021222;28;20088;-69
2023/07/08 11:00:17;;;;;;;6.75;2.88;;;27.90;97.60;;;;;;5018204;28;20004;-69
2023/07/08 11:02:46;;;;;;;7.53;3.05;;;28.00;97.60;;;;;;5015768;28;20148;-69
2023/07/08 11:05:17;;;;;;;4.93;2.33;;;28.10;97.00;;;;;;5017080;28;20060;-69
2023/07/08 11:08:00;;;;;;;9.35;3.63;;;28.10;95.90;;;;;;5018501;28;20060;-69
2023/07/08 11:10:36;;;;;;;8.45;2.80;;;28.20;96.40;;;;;;5012061;28;20134;-69
2023/07/08 11:13:23;;;;;;;6.75;2.75;;;28.20;96.00;;;;;;5017724;28;20041;-69
2023/07/08 11:15:56;;;;;;;7.70;2.92;;;28.30;96.60;;;;;;5018346;28;20049;-69
2023/07/08 11:18:33;;;;;;;7.53;3.00;;;28.30;96.00;;;;;;5005695;28;20629;-69
2023/07/08 11:21:09;;;;;;;5.40;2.70;;;28.40;96.30;;;;;;5018561;28;20187;-70
2023/07/08 11:23:49;;;;;;;6.50;2.90;;;28.50;95.70;;;;;;5011900;28;20498;-71
2023/07/08 11:26:34;;;;;;;7.32;3.15;;;28.50;95.10;;;;;;5017135;28;20142;-72
2023/07/08 11:29:01;;;;;;;9.45;3.42;;;28.60;95.40;;;;;;5016761;28;20588;-71
2023/07/08 11:31:31;;;;;;;7.80;2.97;;;28.70;95.00;;;;;;5019171;28;20041;-71
2023/07/08 11:33:57;;;;;;;5.93;2.97;;;28.70;94.70;;;;;;5022254;28;20052;-71
2023/07/08 11:36:26;;;;;;;7.75;2.70;;;28.80;95.10;;;;;;5017189;28;20037;-71
2023/07/08 11:38:55;;;;;;;6.65;3.03;;;28.80;95.20;;;;;;5016053;28;20470;-73
2023/07/08 11:41:25;;;;;;;7.28;2.67;;;28.90;93.80;;;;;;5017234;28;20069;-71
2023/07/08 11:44:02;;;;;;;7.60;3.33;;;28.90;94.40;;;;;;5015675;28;20041;-72
2023/07/08 11:46:32;;;;;;;5.22;2.80;;;29.00;94.90;;;;;;5016783;28;20162;-71
2023/07/08 11:49:11;;;;;;;7.43;2.70;;;29.00;94.50;;;;;;5013524;28;20522;-72
2023/07/08 11:51:41;;;;;;;11.05;3.20;;;29.10;94.60;;;;;;5014159;28;20072;-73
2023/07/08 11:54:30;;;;;;;6.88;2.85;;;29.10;93.00;;;;;;5019389;28;20045;-73
2023/07/08 11:57:16;;;;;;;5.68;2.80;;;29.10;93.40;;;;;;5015328;28;20104;-74
2023/07/08 11:59:41;;;;;;;5.20;2.90;;;29.20;93.00;;;;;;5020689;28;20136;-74
2023/07/08 12:02:31;;;;;;;6.75;2.90;;;29.20;93.10;;;;;;5002845;28;20033;-74
2023/07/08 12:05:03;;;;;;;6.07;2.90;;;29.30;94.00;;;;;;5014109;28;20057;-72
2023/07/08 12:07:42;;;;;;;5.70;3.08;;;29.40;94.10;;;;;;5018077;28;20046;-73
2023/07/08 12:10:18;;;;;;;7.80;3.17;;;29.40;92.90;;;;;;5016987;28;20518;-73
2023/07/08 12:12:46;;;;;;;5.43;3.03;;;29.50;92.00;;;;;;5017191;28;20042;-73
2023/07/08 12:15:31;;;;;;;5.75;3.22;;;29.50;92.00;;;;;;5013270;28;20041;-73
2023/07/08 12:18:20;;;;;;;5.78;3.13;;;29.60;92.30;;;;;;5020105;28;20053;-72
2023/07/08 12:20:54;;;;;;;6.15;3.28;;;29.60;92.20;;;;;;5018321;28;20057;-73
2023/07/08 12:23:23;;;;;;;7.38;2.80;;;29.60;91.30;;;;;;5015368;28;20041;-72
2023/07/08 12:25:49;;;;;;;6.57;2.90;;;29.70;92.00;;;;;;4991200;28;20197;-74
2023/07/08 12:28:15;;;;;;;7.82;2.90;;;29.70;91.70;;;;;;5015231;28;20049;-73
2023/07/08 12:30:43;;;;;;;6.20;3.08;;;29.80;92.30;;;;;;4996438;28;20150;-73
2023/07/08 12:33:19;;;;;;;7.78;3.47;;;29.80;92.40;;;;;;5019403;28;20128;-72
2023/07/08 12:35:55;;;;;;;9.10;2.60;;;29.90;92.00;;;;;;5088977;27;20451;-73
2023/07/08 12:38:41;;;;;;;8.55;3.72;;;29.90;91.60;;;;;;5089169;28;20424;-72
2023/07/08 12:41:14;;;;;;;6.28;2.90;;;30.00;90.50;;;;;;5054771;28;20726;-73
2023/07/08 12:43:40;;;;;;;6.93;2.97;;;30.00;90.30;;;;;;5087105;28;20051;-71
2023/07/08 12:46:09;;;;;;;7.93;2.90;;;30.00;90.70;;;;;;5082658;28;20098;-71
2023/07/08 12:48:37;;;;;;;5.90;3.08;;;30.10;90.60;;;;;;5081147;28;20032;-71
2023/07/08 12:51:04;;;;;;;5.47;2.75;;;30.10;91.00;;;;;;5075301;28;20131;-70
2023/07/08 12:53:31;;;;;;;5.63;3.08;;;30.10;90.50;;;;;;5071983;28;20040;-71
2023/07/08 12:55:59;;;;;;;5.47;2.78;;;30.20;89.40;;;;;;5054481;28;20040;-70
2023/07/08 12:58:30;;;;;;;6.38;3.35;;;30.20;90.40;;;;;;5072106;28;22192;-71